Bettembourg, Luxembourg
Current Conditions -  °F | °C
As of 1:20 PM on Friday 21 Nov 2014 (Local Time) from ELLX Reporting Station
Overcast Overcast  
Wind Chill: 40°   Ceiling: 1700
Heat Index: 43°   Visibility: 6mi
Dew Point: 39°   Wind: 5mph
Humidity: 87%   Direction: 100°E
Pressure: 30.12"   Gusts: NA
Location:  49.52°N, 6.1°E
Report Text: ELLX 211220Z 10004KT 060V140 9000 OVC017 06/04 Q1020 NOSIG
Loading
Personal Weather Stations






























Interactive Weather Map New forecast layout! Learn more

10-Day Weather Forecast

Advertisements
Track Severe Weather on mobile